sensor_id;sensor_type;location;lat;lon;timestamp;P1;durP1;ratioP1;P2;durP2;ratioP2
3189;SDS011;1606;51.946;10.558;2024-03-23T00:53:53;14.43;;;4.80;;
3189;SDS011;1606;51.946;10.558;2024-03-23T00:56:19;16.50;;;5.60;;
3189;SDS011;1606;51.946;10.558;2024-03-23T00:58:46;15.87;;;6.00;;
3189;SDS011;1606;51.946;10.558;2024-03-23T01:01:12;14.87;;;5.37;;
3189;SDS011;1606;51.946;10.558;2024-03-23T01:03:39;16.37;;;5.50;;
3189;SDS011;1606;51.946;10.558;2024-03-23T01:06:05;16.10;;;4.90;;
3189;SDS011;1606;51.946;10.558;2024-03-23T01:08:32;13.43;;;4.53;;
3189;SDS011;1606;51.946;10.558;2024-03-23T01:10:59;13.43;;;5.17;;
3189;SDS011;1606;51.946;10.558;2024-03-23T01:13:27;11.90;;;4.70;;
3189;SDS011;1606;51.946;10.558;2024-03-23T01:15:54;14.60;;;4.70;;
3189;SDS011;1606;51.946;10.558;2024-03-23T01:18:22;11.80;;;5.10;;
3189;SDS011;1606;51.946;10.558;2024-03-23T01:20:49;16.93;;;6.00;;
3189;SDS011;1606;51.946;10.558;2024-03-23T01:23:16;14.30;;;5.70;;
3189;SDS011;1606;51.946;10.558;2024-03-23T01:25:42;20.33;;;5.80;;
3189;SDS011;1606;51.946;10.558;2024-03-23T01:28:10;15.90;;;5.23;;
3189;SDS011;1606;51.946;10.558;2024-03-23T01:30:36;17.57;;;7.60;;
3189;SDS011;1606;51.946;10.558;2024-03-23T01:33:03;17.47;;;6.57;;
3189;SDS011;1606;51.946;10.558;2024-03-23T01:35:29;16.23;;;6.83;;
3189;SDS011;1606;51.946;10.558;2024-03-23T01:37:56;18.93;;;6.53;;
3189;SDS011;1606;51.946;10.558;2024-03-23T01:40:22;20.43;;;5.20;;
3189;SDS011;1606;51.946;10.558;2024-03-23T01:42:55;13.53;;;5.00;;
3189;SDS011;1606;51.946;10.558;2024-03-23T01:45:22;12.50;;;4.40;;
3189;SDS011;1606;51.946;10.558;2024-03-23T01:47:49;13.70;;;4.40;;
3189;SDS011;1606;51.946;10.558;2024-03-23T01:50:16;21.27;;;6.13;;
3189;SDS011;1606;51.946;10.558;2024-03-23T01:52:43;13.33;;;4.13;;
3189;SDS011;1606;51.946;10.558;2024-03-23T01:55:09;14.57;;;4.43;;
3189;SDS011;1606;51.946;10.558;2024-03-23T01:57:37;12.80;;;4.47;;
3189;SDS011;1606;51.946;10.558;2024-03-23T02:00:03;14.90;;;4.83;;
3189;SDS011;1606;51.946;10.558;2024-03-23T02:02:34;13.23;;;4.20;;
3189;SDS011;1606;51.946;10.558;2024-03-23T02:05:00;11.90;;;4.17;;
3189;SDS011;1606;51.946;10.558;2024-03-23T02:07:27;17.40;;;4.80;;
3189;SDS011;1606;51.946;10.558;2024-03-23T02:09:53;13.20;;;4.37;;
3189;SDS011;1606;51.946;10.558;2024-03-23T02:12:21;14.63;;;5.53;;
3189;SDS011;1606;51.946;10.558;2024-03-23T02:14:47;14.40;;;4.37;;
3189;SDS011;1606;51.946;10.558;2024-03-23T02:17:13;14.23;;;4.40;;
3189;SDS011;1606;51.946;10.558;2024-03-23T02:19:41;14.93;;;4.53;;
3189;SDS011;1606;51.946;10.558;2024-03-23T02:22:08;14.70;;;4.30;;
3189;SDS011;1606;51.946;10.558;2024-03-23T02:24:37;21.97;;;4.40;;
3189;SDS011;1606;51.946;10.558;2024-03-23T02:27:04;13.40;;;4.67;;
3189;SDS011;1606;51.946;10.558;2024-03-23T02:29:30;15.73;;;5.40;;
3189;SDS011;1606;51.946;10.558;2024-03-23T02:31:57;11.47;;;4.53;;
3189;SDS011;1606;51.946;10.558;2024-03-23T02:34:24;12.60;;;5.23;;
3189;SDS011;1606;51.946;10.558;2024-03-23T02:36:51;13.97;;;4.03;;
3189;SDS011;1606;51.946;10.558;2024-03-23T02:39:16;14.33;;;3.63;;
3189;SDS011;1606;51.946;10.558;2024-03-23T02:41:45;14.03;;;3.80;;
3189;SDS011;1606;51.946;10.558;2024-03-23T02:44:10;12.30;;;3.60;;
3189;SDS011;1606;51.946;10.558;2024-03-23T02:46:38;15.37;;;4.40;;
3189;SDS011;1606;51.946;10.558;2024-03-23T02:49:04;18.97;;;5.10;;
3189;SDS011;1606;51.946;10.558;2024-03-23T02:51:30;12.03;;;4.47;;
3189;SDS011;1606;51.946;10.558;2024-03-23T02:53:56;16.87;;;4.07;;
3189;SDS011;1606;51.946;10.558;2024-03-23T02:56:23;12.80;;;3.90;;
3189;SDS011;1606;51.946;10.558;2024-03-23T02:58:50;12.80;;;3.63;;
3189;SDS011;1606;51.946;10.558;2024-03-23T03:01:17;11.87;;;3.63;;
3189;SDS011;1606;51.946;10.558;2024-03-23T03:03:43;12.80;;;3.90;;
3189;SDS011;1606;51.946;10.558;2024-03-23T03:06:10;12.80;;;4.30;;
3189;SDS011;1606;51.946;10.558;2024-03-23T03:08:36;11.33;;;3.50;;
3189;SDS011;1606;51.946;10.558;2024-03-23T03:11:03;14.00;;;4.43;;
3189;SDS011;1606;51.946;10.558;2024-03-23T03:13:29;11.80;;;4.00;;
3189;SDS011;1606;51.946;10.558;2024-03-23T03:15:57;11.17;;;3.53;;
3189;SDS011;1606;51.946;10.558;2024-03-23T03:18:24;10.00;;;4.60;;
3189;SDS011;1606;51.946;10.558;2024-03-23T03:20:53;10.73;;;3.80;;
3189;SDS011;1606;51.946;10.558;2024-03-23T03:23:20;7.97;;;3.30;;
3189;SDS011;1606;51.946;10.558;2024-03-23T03:25:47;16.57;;;3.97;;
3189;SDS011;1606;51.946;10.558;2024-03-23T03:28:12;10.57;;;3.57;;
3189;SDS011;1606;51.946;10.558;2024-03-23T03:30:39;9.43;;;3.80;;
3189;SDS011;1606;51.946;10.558;2024-03-23T03:33:06;12.33;;;3.70;;
3189;SDS011;1606;51.946;10.558;2024-03-23T03:35:33;11.60;;;4.20;;
3189;SDS011;1606;51.946;10.558;2024-03-23T03:37:59;10.30;;;3.77;;
3189;SDS011;1606;51.946;10.558;2024-03-23T03:40:26;10.13;;;3.70;;
3189;SDS011;1606;51.946;10.558;2024-03-23T03:42:52;8.50;;;3.23;;
3189;SDS011;1606;51.946;10.558;2024-03-23T03:45:19;10.43;;;4.30;;
3189;SDS011;1606;51.946;10.558;2024-03-23T03:47:45;10.87;;;3.43;;
3189;SDS011;1606;51.946;10.558;2024-03-23T03:50:13;10.10;;;3.47;;
3189;SDS011;1606;51.946;10.558;2024-03-23T03:52:39;10.43;;;3.87;;
3189;SDS011;1606;51.946;10.558;2024-03-23T03:55:12;11.87;;;3.43;;
3189;SDS011;1606;51.946;10.558;2024-03-23T03:57:39;12.23;;;3.60;;
3189;SDS011;1606;51.946;10.558;2024-03-23T04:00:06;11.53;;;3.30;;
3189;SDS011;1606;51.946;10.558;2024-03-23T04:02:36;13.30;;;4.10;;
3189;SDS011;1606;51.946;10.558;2024-03-23T04:05:04;9.17;;;3.50;;
3189;SDS011;1606;51.946;10.558;2024-03-23T04:07:32;11.50;;;3.47;;
3189;SDS011;1606;51.946;10.558;2024-03-23T04:09:59;9.40;;;3.57;;
3189;SDS011;1606;51.946;10.558;2024-03-23T04:12:25;9.10;;;4.47;;
3189;SDS011;1606;51.946;10.558;2024-03-23T04:14:52;10.13;;;3.03;;
3189;SDS011;1606;51.946;10.558;2024-03-23T04:17:18;10.00;;;3.23;;
3189;SDS011;1606;51.946;10.558;2024-03-23T04:19:47;13.23;;;4.90;;
3189;SDS011;1606;51.946;10.558;2024-03-23T04:22:14;10.40;;;4.00;;
3189;SDS011;1606;51.946;10.558;2024-03-23T04:24:43;9.37;;;3.53;;
3189;SDS011;1606;51.946;10.558;2024-03-23T04:27:09;9.93;;;3.27;;
3189;SDS011;1606;51.946;10.558;2024-03-23T04:29:36;11.23;;;3.37;;
3189;SDS011;1606;51.946;10.558;2024-03-23T04:32:02;12.27;;;3.50;;
3189;SDS011;1606;51.946;10.558;2024-03-23T04:34:30;9.23;;;3.13;;
3189;SDS011;1606;51.946;10.558;2024-03-23T04:36:58;10.90;;;3.23;;
3189;SDS011;1606;51.946;10.558;2024-03-23T04:39:25;9.47;;;2.97;;
3189;SDS011;1606;51.946;10.558;2024-03-23T04:41:53;8.67;;;2.40;;
3189;SDS011;1606;51.946;10.558;2024-03-23T04:44:19;10.50;;;2.63;;
3189;SDS011;1606;51.946;10.558;2024-03-23T04:46:47;10.40;;;2.43;;
3189;SDS011;1606;51.946;10.558;2024-03-23T04:49:12;8.43;;;2.07;;
3189;SDS011;1606;51.946;10.558;2024-03-23T04:51:40;6.47;;;2.30;;
3189;SDS011;1606;51.946;10.558;2024-03-23T04:54:11;8.40;;;2.27;;
3189;SDS011;1606;51.946;10.558;2024-03-23T04:56:38;7.20;;;1.90;;
3189;SDS011;1606;51.946;10.558;2024-03-23T04:59:06;11.17;;;2.30;;
3189;SDS011;1606;51.946;10.558;2024-03-23T05:01:32;7.37;;;2.03;;
3189;SDS011;1606;51.946;10.558;2024-03-23T05:03:59;14.33;;;3.20;;
3189;SDS011;1606;51.946;10.558;2024-03-23T05:06:25;10.33;;;2.00;;
3189;SDS011;1606;51.946;10.558;2024-03-23T05:08:52;11.03;;;2.20;;
3189;SDS011;1606;51.946;10.558;2024-03-23T05:11:18;7.80;;;2.20;;
3189;SDS011;1606;51.946;10.558;2024-03-23T05:13:46;9.50;;;2.63;;
3189;SDS011;1606;51.946;10.558;2024-03-23T05:16:13;7.27;;;2.20;;
3189;SDS011;1606;51.946;10.558;2024-03-23T05:18:40;8.07;;;2.33;;
3189;SDS011;1606;51.946;10.558;2024-03-23T05:21:06;8.00;;;2.10;;
3189;SDS011;1606;51.946;10.558;2024-03-23T05:23:33;6.50;;;1.90;;
3189;SDS011;1606;51.946;10.558;2024-03-23T05:26:00;7.60;;;2.10;;
3189;SDS011;1606;51.946;10.558;2024-03-23T05:28:26;5.80;;;1.87;;
3189;SDS011;1606;51.946;10.558;2024-03-23T05:30:53;6.03;;;2.00;;
3189;SDS011;1606;51.946;10.558;2024-03-23T05:33:21;6.30;;;1.73;;
3189;SDS011;1606;51.946;10.558;2024-03-23T05:35:56;7.20;;;2.30;;
3189;SDS011;1606;51.946;10.558;2024-03-23T05:38:22;7.30;;;2.13;;
3189;SDS011;1606;51.946;10.558;2024-03-23T05:40:53;6.00;;;2.37;;
3189;SDS011;1606;51.946;10.558;2024-03-23T05:43:19;7.57;;;1.93;;
3189;SDS011;1606;51.946;10.558;2024-03-23T05:45:46;9.50;;;2.50;;
3189;SDS011;1606;51.946;10.558;2024-03-23T05:48:18;9.13;;;2.60;;
3189;SDS011;1606;51.946;10.558;2024-03-23T05:50:46;6.73;;;2.10;;
3189;SDS011;1606;51.946;10.558;2024-03-23T05:53:12;6.53;;;1.67;;
3189;SDS011;1606;51.946;10.558;2024-03-23T05:55:39;9.27;;;2.70;;
3189;SDS011;1606;51.946;10.558;2024-03-23T05:58:05;7.63;;;1.73;;
3189;SDS011;1606;51.946;10.558;2024-03-23T06:00:31;7.13;;;2.33;;
3189;SDS011;1606;51.946;10.558;2024-03-23T06:02:57;11.93;;;3.00;;
3189;SDS011;1606;51.946;10.558;2024-03-23T06:05:24;9.30;;;3.10;;
3189;SDS011;1606;51.946;10.558;2024-03-23T06:07:53;9.80;;;2.80;;
3189;SDS011;1606;51.946;10.558;2024-03-23T06:10:21;7.23;;;2.40;;
3189;SDS011;1606;51.946;10.558;2024-03-23T06:12:47;7.03;;;2.00;;
3189;SDS011;1606;51.946;10.558;2024-03-23T06:15:14;6.63;;;2.10;;
3189;SDS011;1606;51.946;10.558;2024-03-23T06:17:40;9.03;;;2.73;;
3189;SDS011;1606;51.946;10.558;2024-03-23T06:20:07;8.60;;;2.70;;
3189;SDS011;1606;51.946;10.558;2024-03-23T06:22:35;7.30;;;2.20;;
3189;SDS011;1606;51.946;10.558;2024-03-23T06:25:04;8.17;;;2.60;;
3189;SDS011;1606;51.946;10.558;2024-03-23T06:27:30;8.77;;;2.83;;
3189;SDS011;1606;51.946;10.558;2024-03-23T06:29:58;9.60;;;2.60;;
3189;SDS011;1606;51.946;10.558;2024-03-23T06:32:24;7.10;;;2.50;;
3189;SDS011;1606;51.946;10.558;2024-03-23T06:34:51;7.20;;;2.50;;
3189;SDS011;1606;51.946;10.558;2024-03-23T06:37:17;6.47;;;2.27;;
3189;SDS011;1606;51.946;10.558;2024-03-23T06:39:45;7.70;;;2.53;;
3189;SDS011;1606;51.946;10.558;2024-03-23T06:42:13;8.50;;;2.37;;
3189;SDS011;1606;51.946;10.558;2024-03-23T06:44:40;9.30;;;2.40;;
3189;SDS011;1606;51.946;10.558;2024-03-23T06:47:06;6.43;;;2.03;;
3189;SDS011;1606;51.946;10.558;2024-03-23T06:49:33;8.30;;;2.20;;
3189;SDS011;1606;51.946;10.558;2024-03-23T06:51:59;6.20;;;1.83;;
3189;SDS011;1606;51.946;10.558;2024-03-23T06:54:26;7.87;;;2.63;;
3189;SDS011;1606;51.946;10.558;2024-03-23T06:56:52;7.60;;;2.43;;
3189;SDS011;1606;51.946;10.558;2024-03-23T06:59:20;12.50;;;4.00;;
3189;SDS011;1606;51.946;10.558;2024-03-23T07:01:46;11.20;;;3.10;;
3189;SDS011;1606;51.946;10.558;2024-03-23T07:04:13;14.73;;;3.77;;
3189;SDS011;1606;51.946;10.558;2024-03-23T07:06:42;10.87;;;3.37;;
3189;SDS011;1606;51.946;10.558;2024-03-23T07:09:09;8.50;;;3.47;;
3189;SDS011;1606;51.946;10.558;2024-03-23T07:11:36;9.27;;;3.60;;
3189;SDS011;1606;51.946;10.558;2024-03-23T07:14:02;10.43;;;3.47;;
3189;SDS011;1606;51.946;10.558;2024-03-23T07:16:30;9.90;;;2.87;;
3189;SDS011;1606;51.946;10.558;2024-03-23T07:18:57;10.97;;;3.90;;
3189;SDS011;1606;51.946;10.558;2024-03-23T07:21:24;12.20;;;3.37;;
3189;SDS011;1606;51.946;10.558;2024-03-23T07:23:50;9.40;;;3.27;;
3189;SDS011;1606;51.946;10.558;2024-03-23T07:26:16;9.37;;;3.33;;
3189;SDS011;1606;51.946;10.558;2024-03-23T07:28:44;10.30;;;2.90;;
3189;SDS011;1606;51.946;10.558;2024-03-23T07:31:13;12.30;;;4.10;;
3189;SDS011;1606;51.946;10.558;2024-03-23T07:33:43;9.63;;;3.67;;
3189;SDS011;1606;51.946;10.558;2024-03-23T07:36:10;12.20;;;3.27;;
3189;SDS011;1606;51.946;10.558;2024-03-23T07:38:37;8.27;;;2.73;;
3189;SDS011;1606;51.946;10.558;2024-03-23T07:41:06;11.23;;;2.90;;
3189;SDS011;1606;51.946;10.558;2024-03-23T07:43:34;11.57;;;3.10;;
3189;SDS011;1606;51.946;10.558;2024-03-23T07:46:01;9.53;;;2.97;;
3189;SDS011;1606;51.946;10.558;2024-03-23T07:48:28;17.13;;;3.17;;
3189;SDS011;1606;51.946;10.558;2024-03-23T07:51:01;14.07;;;3.40;;
3189;SDS011;1606;51.946;10.558;2024-03-23T07:53:28;12.40;;;2.57;;
3189;SDS011;1606;51.946;10.558;2024-03-23T07:55:55;13.10;;;2.80;;
3189;SDS011;1606;51.946;10.558;2024-03-23T07:58:22;15.87;;;3.67;;
3189;SDS011;1606;51.946;10.558;2024-03-23T08:00:49;9.67;;;2.37;;
3189;SDS011;1606;51.946;10.558;2024-03-23T08:03:15;12.00;;;2.90;;
3189;SDS011;1606;51.946;10.558;2024-03-23T08:05:42;18.47;;;3.07;;
3189;SDS011;1606;51.946;10.558;2024-03-23T08:08:09;9.90;;;3.30;;
3189;SDS011;1606;51.946;10.558;2024-03-23T08:10:37;15.10;;;2.23;;
3189;SDS011;1606;51.946;10.558;2024-03-23T08:13:12;9.57;;;2.90;;
3189;SDS011;1606;51.946;10.558;2024-03-23T08:15:38;14.10;;;2.53;;
3189;SDS011;1606;51.946;10.558;2024-03-23T08:18:04;8.80;;;2.57;;
3189;SDS011;1606;51.946;10.558;2024-03-23T08:20:32;11.03;;;2.37;;
3189;SDS011;1606;51.946;10.558;2024-03-23T08:22:57;9.97;;;2.57;;
3189;SDS011;1606;51.946;10.558;2024-03-23T08:25:26;12.33;;;3.20;;
3189;SDS011;1606;51.946;10.558;2024-03-23T08:27:52;10.80;;;2.80;;
3189;SDS011;1606;51.946;10.558;2024-03-23T08:30:19;13.87;;;2.40;;
3189;SDS011;1606;51.946;10.558;2024-03-23T08:32:45;14.83;;;2.87;;
3189;SDS011;1606;51.946;10.558;2024-03-23T08:35:12;16.83;;;3.83;;
3189;SDS011;1606;51.946;10.558;2024-03-23T08:37:38;10.20;;;2.63;;
3189;SDS011;1606;51.946;10.558;2024-03-23T08:40:06;12.57;;;2.77;;
3189;SDS011;1606;51.946;10.558;2024-03-23T08:42:35;8.40;;;2.20;;
3189;SDS011;1606;51.946;10.558;2024-03-23T08:45:02;11.17;;;2.97;;
3189;SDS011;1606;51.946;10.558;2024-03-23T08:47:28;6.63;;;1.80;;
3189;SDS011;1606;51.946;10.558;2024-03-23T08:49:55;11.83;;;2.13;;
3189;SDS011;1606;51.946;10.558;2024-03-23T08:52:23;10.90;;;2.63;;
3189;SDS011;1606;51.946;10.558;2024-03-23T08:54:52;9.00;;;2.40;;
3189;SDS011;1606;51.946;10.558;2024-03-23T08:57:18;8.33;;;2.20;;
3189;SDS011;1606;51.946;10.558;2024-03-23T08:59:46;7.13;;;2.57;;
3189;SDS011;1606;51.946;10.558;2024-03-23T09:02:12;9.63;;;2.40;;
3189;SDS011;1606;51.946;10.558;2024-03-23T09:04:39;8.20;;;2.60;;
3189;SDS011;1606;51.946;10.558;2024-03-23T09:07:05;11.43;;;2.80;;
3189;SDS011;1606;51.946;10.558;2024-03-23T09:09:32;10.90;;;2.90;;
3189;SDS011;1606;51.946;10.558;2024-03-23T09:11:57;12.13;;;2.80;;
3189;SDS011;1606;51.946;10.558;2024-03-23T09:14:24;9.70;;;2.70;;
3189;SDS011;1606;51.946;10.558;2024-03-23T09:16:52;9.23;;;3.10;;
3189;SDS011;1606;51.946;10.558;2024-03-23T09:19:19;10.23;;;2.80;;
3189;SDS011;1606;51.946;10.558;2024-03-23T09:21:45;12.77;;;5.47;;
3189;SDS011;1606;51.946;10.558;2024-03-23T09:24:12;16.20;;;3.57;;
3189;SDS011;1606;51.946;10.558;2024-03-23T09:26:37;9.37;;;2.57;;
3189;SDS011;1606;51.946;10.558;2024-03-23T09:29:04;11.93;;;3.10;;
3189;SDS011;1606;51.946;10.558;2024-03-23T09:31:30;13.70;;;4.17;;
3189;SDS011;1606;51.946;10.558;2024-03-23T09:34:00;12.93;;;3.23;;
3189;SDS011;1606;51.946;10.558;2024-03-23T09:36:26;12.57;;;3.03;;
3189;SDS011;1606;51.946;10.558;2024-03-23T09:38:53;14.40;;;3.20;;
3189;SDS011;1606;51.946;10.558;2024-03-23T09:41:19;9.97;;;2.70;;
3189;SDS011;1606;51.946;10.558;2024-03-23T09:43:45;11.63;;;2.60;;
3189;SDS011;1606;51.946;10.558;2024-03-23T09:46:13;7.53;;;2.57;;
3189;SDS011;1606;51.946;10.558;2024-03-23T09:48:41;10.30;;;2.67;;
3189;SDS011;1606;51.946;10.558;2024-03-23T09:51:12;10.50;;;3.17;;
3189;SDS011;1606;51.946;10.558;2024-03-23T09:53:39;8.93;;;2.70;;
3189;SDS011;1606;51.946;10.558;2024-03-23T09:56:07;11.93;;;2.93;;
3189;SDS011;1606;51.946;10.558;2024-03-23T09:58:35;9.27;;;3.10;;
3189;SDS011;1606;51.946;10.558;2024-03-23T10:01:01;10.53;;;3.37;;
3189;SDS011;1606;51.946;10.558;2024-03-23T10:03:29;11.13;;;3.33;;
3189;SDS011;1606;51.946;10.558;2024-03-23T10:06:01;15.13;;;3.73;;
3189;SDS011;1606;51.946;10.558;2024-03-23T10:08:30;9.00;;;3.40;;
3189;SDS011;1606;51.946;10.558;2024-03-23T10:10:58;9.80;;;3.50;;
3189;SDS011;1606;51.946;10.558;2024-03-23T10:13:39;12.63;;;3.53;;
3189;SDS011;1606;51.946;10.558;2024-03-23T10:16:07;11.17;;;3.80;;
3189;SDS011;1606;51.946;10.558;2024-03-23T10:18:36;12.83;;;4.47;;
3189;SDS011;1606;51.946;10.558;2024-03-23T10:21:06;9.70;;;4.40;;
3189;SDS011;1606;51.946;10.558;2024-03-23T10:23:38;14.27;;;4.73;;
3189;SDS011;1606;51.946;10.558;2024-03-23T10:26:15;13.23;;;5.07;;
3189;SDS011;1606;51.946;10.558;2024-03-23T10:28:50;15.60;;;5.33;;
3189;SDS011;1606;51.946;10.558;2024-03-23T10:31:17;14.10;;;5.13;;
3189;SDS011;1606;51.946;10.558;2024-03-23T10:33:45;17.33;;;5.40;;
3189;SDS011;1606;51.946;10.558;2024-03-23T10:36:11;12.43;;;4.40;;
3189;SDS011;1606;51.946;10.558;2024-03-23T10:38:40;11.50;;;4.00;;
3189;SDS011;1606;51.946;10.558;2024-03-23T10:41:07;14.20;;;5.67;;
3189;SDS011;1606;51.946;10.558;2024-03-23T10:43:35;13.10;;;4.73;;
3189;SDS011;1606;51.946;10.558;2024-03-23T10:46:01;18.87;;;6.93;;
3189;SDS011;1606;51.946;10.558;2024-03-23T10:48:28;12.20;;;4.00;;
3189;SDS011;1606;51.946;10.558;2024-03-23T10:50:54;12.37;;;4.00;;
3189;SDS011;1606;51.946;10.558;2024-03-23T10:53:22;14.00;;;3.53;;
3189;SDS011;1606;51.946;10.558;2024-03-23T10:55:52;11.57;;;4.10;;
3189;SDS011;1606;51.946;10.558;2024-03-23T10:58:21;12.63;;;4.43;;
3189;SDS011;1606;51.946;10.558;2024-03-23T11:00:53;10.93;;;4.80;;
3189;SDS011;1606;51.946;10.558;2024-03-23T11:03:29;20.90;;;4.50;;
3189;SDS011;1606;51.946;10.558;2024-03-23T11:05:56;12.47;;;4.30;;
3189;SDS011;1606;51.946;10.558;2024-03-23T11:08:30;11.40;;;4.50;;
3189;SDS011;1606;51.946;10.558;2024-03-23T11:13:57;10.60;;;4.47;;
3189;SDS011;1606;51.946;10.558;2024-03-23T11:16:25;16.73;;;3.85;;
3189;SDS011;1606;51.946;10.558;2024-03-23T11:18:56;12.83;;;4.50;;
3189;SDS011;1606;51.946;10.558;2024-03-23T11:22:01;12.33;;;3.37;;
3189;SDS011;1606;51.946;10.558;2024-03-23T11:24:30;9.87;;;4.10;;
3189;SDS011;1606;51.946;10.558;2024-03-23T11:26:57;13.10;;;3.80;;
3189;SDS011;1606;51.946;10.558;2024-03-23T11:29:25;11.80;;;3.97;;
3189;SDS011;1606;51.946;10.558;2024-03-23T11:31:52;11.37;;;3.43;;
3189;SDS011;1606;51.946;10.558;2024-03-23T11:34:19;9.50;;;3.27;;
3189;SDS011;1606;51.946;10.558;2024-03-23T11:36:46;9.53;;;2.47;;
3189;SDS011;1606;51.946;10.558;2024-03-23T11:39:14;6.80;;;1.80;;
3189;SDS011;1606;51.946;10.558;2024-03-23T11:41:45;7.97;;;2.10;;
3189;SDS011;1606;51.946;10.558;2024-03-23T11:44:18;6.77;;;1.80;;
3189;SDS011;1606;51.946;10.558;2024-03-23T11:46:44;7.80;;;2.23;;
3189;SDS011;1606;51.946;10.558;2024-03-23T11:49:21;6.57;;;1.97;;
3189;SDS011;1606;51.946;10.558;2024-03-23T11:51:48;7.30;;;1.70;;
3189;SDS011;1606;51.946;10.558;2024-03-23T11:54:15;6.70;;;1.90;;
3189;SDS011;1606;51.946;10.558;2024-03-23T11:56:53;5.83;;;2.17;;
3189;SDS011;1606;51.946;10.558;2024-03-23T11:59:32;7.47;;;1.90;;
3189;SDS011;1606;51.946;10.558;2024-03-23T12:01:59;7.93;;;2.20;;
3189;SDS011;1606;51.946;10.558;2024-03-23T12:04:26;6.70;;;2.10;;
3189;SDS011;1606;51.946;10.558;2024-03-23T12:09:38;10.87;;;3.50;;
3189;SDS011;1606;51.946;10.558;2024-03-23T12:12:11;16.00;;;3.83;;
3189;SDS011;1606;51.946;10.558;2024-03-23T12:14:42;9.97;;;3.50;;
3189;SDS011;1606;51.946;10.558;2024-03-23T12:17:09;6.93;;;2.57;;
3189;SDS011;1606;51.946;10.558;2024-03-23T12:19:37;8.73;;;2.30;;
3189;SDS011;1606;51.946;10.558;2024-03-23T12:22:03;6.87;;;2.50;;
3189;SDS011;1606;51.946;10.558;2024-03-23T12:24:30;8.93;;;2.17;;
3189;SDS011;1606;51.946;10.558;2024-03-23T12:26:59;7.53;;;1.90;;
3189;SDS011;1606;51.946;10.558;2024-03-23T12:29:28;7.10;;;2.47;;
3189;SDS011;1606;51.946;10.558;2024-03-23T12:31:56;8.27;;;2.27;;
3189;SDS011;1606;51.946;10.558;2024-03-23T12:34:25;9.50;;;2.20;;
3189;SDS011;1606;51.946;10.558;2024-03-23T12:36:51;10.07;;;2.73;;
3189;SDS011;1606;51.946;10.558;2024-03-23T12:39:18;7.87;;;2.50;;
3189;SDS011;1606;51.946;10.558;2024-03-23T12:41:46;9.23;;;2.83;;
3189;SDS011;1606;51.946;10.558;2024-03-23T12:44:12;7.10;;;2.80;;
3189;SDS011;1606;51.946;10.558;2024-03-23T12:46:39;8.07;;;2.30;;
3189;SDS011;1606;51.946;10.558;2024-03-23T12:49:11;8.37;;;2.43;;
3189;SDS011;1606;51.946;10.558;2024-03-23T12:51:37;9.17;;;2.87;;
3189;SDS011;1606;51.946;10.558;2024-03-23T12:54:04;9.47;;;3.17;;
3189;SDS011;1606;51.946;10.558;2024-03-23T12:56:30;9.87;;;2.30;;
3189;SDS011;1606;51.946;10.558;2024-03-23T12:58:57;7.50;;;2.40;;
3189;SDS011;1606;51.946;10.558;2024-03-23T13:01:23;6.87;;;2.50;;
3189;SDS011;1606;51.946;10.558;2024-03-23T13:03:50;8.13;;;2.50;;
3189;SDS011;1606;51.946;10.558;2024-03-23T13:06:17;10.10;;;2.70;;
3189;SDS011;1606;51.946;10.558;2024-03-23T13:08:45;10.17;;;3.07;;
3189;SDS011;1606;51.946;10.558;2024-03-23T13:11:11;8.47;;;2.90;;
3189;SDS011;1606;51.946;10.558;2024-03-23T13:13:39;8.80;;;2.90;;
3189;SDS011;1606;51.946;10.558;2024-03-23T13:16:05;10.13;;;2.63;;
3189;SDS011;1606;51.946;10.558;2024-03-23T13:18:32;12.33;;;2.53;;
3189;SDS011;1606;51.946;10.558;2024-03-23T13:20:58;7.03;;;2.60;;
3189;SDS011;1606;51.946;10.558;2024-03-23T13:23:27;7.50;;;3.00;;
3189;SDS011;1606;51.946;10.558;2024-03-23T13:25:53;7.40;;;2.93;;
3189;SDS011;1606;51.946;10.558;2024-03-23T13:28:22;5.90;;;1.77;;
3189;SDS011;1606;51.946;10.558;2024-03-23T13:30:51;11.40;;;3.33;;
3189;SDS011;1606;51.946;10.558;2024-03-23T13:33:18;12.50;;;2.43;;
3189;SDS011;1606;51.946;10.558;2024-03-23T13:35:48;8.57;;;2.27;;
3189;SDS011;1606;51.946;10.558;2024-03-23T13:38:16;9.10;;;2.50;;
3189;SDS011;1606;51.946;10.558;2024-03-23T13:40:50;8.30;;;3.07;;
3189;SDS011;1606;51.946;10.558;2024-03-23T13:43:18;9.77;;;3.03;;
3189;SDS011;1606;51.946;10.558;2024-03-23T13:45:44;7.33;;;1.37;;
3189;SDS011;1606;51.946;10.558;2024-03-23T13:48:11;6.73;;;2.10;;
3189;SDS011;1606;51.946;10.558;2024-03-23T13:50:37;7.27;;;2.07;;
3189;SDS011;1606;51.946;10.558;2024-03-23T13:53:04;6.80;;;1.77;;
3189;SDS011;1606;51.946;10.558;2024-03-23T13:55:31;8.50;;;2.83;;
3189;SDS011;1606;51.946;10.558;2024-03-23T13:57:59;6.43;;;2.30;;
3189;SDS011;1606;51.946;10.558;2024-03-23T14:00:25;9.80;;;3.03;;
3189;SDS011;1606;51.946;10.558;2024-03-23T14:02:52;8.33;;;2.30;;
3189;SDS011;1606;51.946;10.558;2024-03-23T14:05:18;7.40;;;1.87;;
3189;SDS011;1606;51.946;10.558;2024-03-23T14:07:45;7.23;;;2.43;;
3189;SDS011;1606;51.946;10.558;2024-03-23T14:10:11;6.60;;;2.50;;
3189;SDS011;1606;51.946;10.558;2024-03-23T14:12:38;6.60;;;2.00;;
3189;SDS011;1606;51.946;10.558;2024-03-23T14:15:06;6.33;;;2.50;;
3189;SDS011;1606;51.946;10.558;2024-03-23T14:17:34;7.23;;;1.87;;
3189;SDS011;1606;51.946;10.558;2024-03-23T14:20:00;8.53;;;2.60;;
3189;SDS011;1606;51.946;10.558;2024-03-23T14:22:27;7.03;;;2.07;;
3189;SDS011;1606;51.946;10.558;2024-03-23T14:24:53;7.40;;;2.07;;
3189;SDS011;1606;51.946;10.558;2024-03-23T14:27:20;8.33;;;2.40;;
3189;SDS011;1606;51.946;10.558;2024-03-23T14:29:46;6.17;;;2.00;;
3189;SDS011;1606;51.946;10.558;2024-03-23T14:32:15;7.60;;;2.30;;
3189;SDS011;1606;51.946;10.558;2024-03-23T14:34:41;6.40;;;2.03;;
3189;SDS011;1606;51.946;10.558;2024-03-23T14:37:08;6.40;;;2.37;;
3189;SDS011;1606;51.946;10.558;2024-03-23T14:39:34;8.43;;;2.20;;
3189;SDS011;1606;51.946;10.558;2024-03-23T14:42:01;7.40;;;2.37;;
3189;SDS011;1606;51.946;10.558;2024-03-23T14:44:27;6.90;;;2.03;;
3189;SDS011;1606;51.946;10.558;2024-03-23T14:46:54;6.90;;;2.07;;
3189;SDS011;1606;51.946;10.558;2024-03-23T14:49:21;6.00;;;2.13;;
3189;SDS011;1606;51.946;10.558;2024-03-23T14:51:49;9.10;;;2.50;;
3189;SDS011;1606;51.946;10.558;2024-03-23T14:54:15;5.80;;;2.13;;
3189;SDS011;1606;51.946;10.558;2024-03-23T14:56:42;8.43;;;2.07;;
3189;SDS011;1606;51.946;10.558;2024-03-23T14:59:08;5.40;;;1.97;;
3189;SDS011;1606;51.946;10.558;2024-03-23T15:01:35;5.70;;;1.60;;
3189;SDS011;1606;51.946;10.558;2024-03-23T15:04:01;6.67;;;3.40;;
3189;SDS011;1606;51.946;10.558;2024-03-23T15:06:30;7.93;;;2.07;;
3189;SDS011;1606;51.946;10.558;2024-03-23T15:08:56;7.87;;;2.30;;
3189;SDS011;1606;51.946;10.558;2024-03-23T15:11:23;9.20;;;2.30;;
3189;SDS011;1606;51.946;10.558;2024-03-23T15:13:49;6.20;;;2.00;;
3189;SDS011;1606;51.946;10.558;2024-03-23T15:16:16;6.63;;;2.30;;
3189;SDS011;1606;51.946;10.558;2024-03-23T15:18:43;6.10;;;2.00;;
3189;SDS011;1606;51.946;10.558;2024-03-23T15:21:10;6.27;;;1.70;;
3189;SDS011;1606;51.946;10.558;2024-03-23T15:23:38;6.57;;;2.10;;
3189;SDS011;1606;51.946;10.558;2024-03-23T15:26:07;6.73;;;2.20;;
3189;SDS011;1606;51.946;10.558;2024-03-23T15:28:33;5.50;;;1.47;;
3189;SDS011;1606;51.946;10.558;2024-03-23T15:31:06;7.30;;;2.20;;
3189;SDS011;1606;51.946;10.558;2024-03-23T15:33:34;6.57;;;1.90;;
3189;SDS011;1606;51.946;10.558;2024-03-23T15:36:02;7.43;;;2.07;;
3189;SDS011;1606;51.946;10.558;2024-03-23T15:38:28;5.87;;;1.90;;
3189;SDS011;1606;51.946;10.558;2024-03-23T15:40:58;5.90;;;1.90;;
3189;SDS011;1606;51.946;10.558;2024-03-23T15:43:24;8.73;;;2.20;;
3189;SDS011;1606;51.946;10.558;2024-03-23T15:45:55;5.90;;;2.10;;
3189;SDS011;1606;51.946;10.558;2024-03-23T15:48:21;6.03;;;1.80;;
3189;SDS011;1606;51.946;10.558;2024-03-23T15:50:51;5.40;;;1.77;;
3189;SDS011;1606;51.946;10.558;2024-03-23T15:53:18;6.70;;;2.07;;
3189;SDS011;1606;51.946;10.558;2024-03-23T15:55:45;8.37;;;2.33;;